createdAt,value
2018-12-16T00:04:34.444Z,1.90
2018-12-16T00:09:27.515Z,1.80
2018-12-16T00:14:20.570Z,1.80
2018-12-16T00:19:13.553Z,1.80
2018-12-16T00:24:06.623Z,1.70
2018-12-16T00:29:00.245Z,1.70
2018-12-16T00:33:53.379Z,1.70
2018-12-16T00:38:46.668Z,1.60
2018-12-16T00:43:39.556Z,1.60
2018-12-16T00:48:32.692Z,1.60
2018-12-16T00:53:26.616Z,1.70
2018-12-16T00:58:20.534Z,1.60
2018-12-16T01:03:14.258Z,1.70
2018-12-16T01:08:07.533Z,1.70
2018-12-16T01:13:04.234Z,1.70
2018-12-16T01:17:57.366Z,1.60
2018-12-16T01:22:50.400Z,1.60
2018-12-16T01:27:43.604Z,1.60
2018-12-16T01:32:37.045Z,1.60
2018-12-16T01:37:30.059Z,1.60
2018-12-16T01:42:23.248Z,1.60
2018-12-16T01:47:17.212Z,1.50
2018-12-16T01:52:11.055Z,1.50
2018-12-16T01:57:03.965Z,1.50
2018-12-16T02:01:56.754Z,1.50
2018-12-16T02:06:50.733Z,1.50
2018-12-16T02:11:43.712Z,1.50
2018-12-16T02:16:36.800Z,1.50
2018-12-16T02:21:29.598Z,1.50
2018-12-16T02:26:22.574Z,1.50
2018-12-16T02:31:15.477Z,1.50
2018-12-16T02:36:08.534Z,1.60
2018-12-16T02:41:01.435Z,1.60
2018-12-16T02:45:54.266Z,1.50
2018-12-16T02:50:47.172Z,1.50
2018-12-16T02:55:40.201Z,1.50
2018-12-16T03:00:33.275Z,1.60
2018-12-16T03:05:26.752Z,1.60
2018-12-16T03:10:19.721Z,1.50
2018-12-16T03:15:12.791Z,1.60
2018-12-16T03:20:06.067Z,1.50
2018-12-16T03:24:58.935Z,1.50
2018-12-16T03:29:51.797Z,1.50
2018-12-16T03:34:45.482Z,1.50
2018-12-16T03:39:38.450Z,1.50
2018-12-16T03:44:31.456Z,1.50
2018-12-16T03:49:24.285Z,1.60
2018-12-16T03:54:17.250Z,1.50
2018-12-16T03:59:16.669Z,1.60
2018-12-16T04:04:10.340Z,1.60
2018-12-16T04:09:04.237Z,1.60
2018-12-16T04:13:57.233Z,1.60
2018-12-16T04:18:50.283Z,1.60
2018-12-16T04:23:43.283Z,1.60
2018-12-16T04:28:36.117Z,1.50
2018-12-16T04:33:29.018Z,1.40
2018-12-16T04:38:22.346Z,1.50
2018-12-16T04:43:15.233Z,1.40
2018-12-16T04:48:13.823Z,1.40
2018-12-16T04:53:07.403Z,1.40
2018-12-16T04:58:00.415Z,1.40
2018-12-16T05:02:53.446Z,1.30
2018-12-16T05:07:47.547Z,1.30
2018-12-16T05:12:40.699Z,1.30
2018-12-16T05:17:33.531Z,1.30
2018-12-16T05:22:28.519Z,1.30
2018-12-16T05:27:21.483Z,1.20
2018-12-16T05:32:14.426Z,1.20
2018-12-16T05:37:07.498Z,1.20
2018-12-16T05:42:00.263Z,1.10
2018-12-16T05:46:54.048Z,1.10
2018-12-16T05:51:47.424Z,1.10
2018-12-16T05:56:40.295Z,1.10
2018-12-16T06:01:33.261Z,1.10
2018-12-16T06:06:27.250Z,1.10
2018-12-16T06:11:21.857Z,1.00
2018-12-16T06:16:14.929Z,1.10
2018-12-16T06:21:08.319Z,1.10
2018-12-16T06:26:01.423Z,1.10
2018-12-16T06:30:54.851Z,1.10
2018-12-16T06:35:47.822Z,1.00
2018-12-16T06:40:42.021Z,1.00
2018-12-16T06:45:34.987Z,1.00
2018-12-16T06:50:27.853Z,1.00
2018-12-16T06:55:20.718Z,0.90
2018-12-16T07:00:14.748Z,0.90
2018-12-16T07:05:07.679Z,0.90
2018-12-16T07:10:00.545Z,0.90
2018-12-16T07:14:53.666Z,1.00
2018-12-16T07:19:46.786Z,0.90
2018-12-16T07:24:40.804Z,0.90
2018-12-16T07:29:33.577Z,0.90
2018-12-16T07:34:26.816Z,0.80
2018-12-16T07:39:19.814Z,0.80
2018-12-16T07:44:12.651Z,0.80
2018-12-16T07:49:05.933Z,0.80
2018-12-16T07:53:59.506Z,0.80
2018-12-16T07:58:53.089Z,0.80
2018-12-16T08:03:47.208Z,0.80
2018-12-16T08:08:40.362Z,0.80
2018-12-16T08:13:33.441Z,1.00
2018-12-16T08:18:26.346Z,1.00
2018-12-16T08:23:19.260Z,0.90
2018-12-16T08:28:12.335Z,0.90
2018-12-16T08:33:07.000Z,1.00
2018-12-16T08:37:59.802Z,1.10
2018-12-16T08:42:53.493Z,1.20
2018-12-16T08:47:46.357Z,1.40
2018-12-16T08:52:39.626Z,1.60
2018-12-16T08:57:32.800Z,1.40
2018-12-16T09:02:25.768Z,1.40
2018-12-16T09:07:18.634Z,1.30
2018-12-16T09:12:12.728Z,1.40
2018-12-16T09:17:05.541Z,1.30
2018-12-16T09:21:58.459Z,1.50
2018-12-16T09:26:51.432Z,1.70
2018-12-16T09:31:44.397Z,1.70
2018-12-16T09:36:37.671Z,2.10
2018-12-16T09:41:31.662Z,2.50
2018-12-16T09:46:24.734Z,2.20
2018-12-16T09:51:18.430Z,2.00
2018-12-16T09:56:11.590Z,1.80
2018-12-16T10:01:05.481Z,2.00
2018-12-16T10:05:58.798Z,2.40
2018-12-16T10:10:53.530Z,2.40
2018-12-16T10:15:46.538Z,2.40
2018-12-16T10:20:40.630Z,3.30
2018-12-16T10:25:34.273Z,4.20
2018-12-16T10:30:27.692Z,5.00
2018-12-16T10:35:20.874Z,4.60
2018-12-16T10:40:14.959Z,3.80
2018-12-16T10:45:09.054Z,3.10
2018-12-16T10:50:02.228Z,2.60
2018-12-16T10:55:02.899Z,2.70
2018-12-16T10:59:55.943Z,3.30
2018-12-16T11:04:48.911Z,3.80
2018-12-16T11:09:41.880Z,3.70
2018-12-16T11:14:36.717Z,3.70
2018-12-16T11:19:30.545Z,5.40
2018-12-16T11:24:23.450Z,5.90
2018-12-16T11:29:16.536Z,5.10
2018-12-16T11:34:09.700Z,5.80
2018-12-16T11:39:05.034Z,5.60
2018-12-16T11:43:58.904Z,4.50
2018-12-16T11:48:52.182Z,3.80
2018-12-16T11:53:45.586Z,3.10
2018-12-16T11:58:38.744Z,2.70
2018-12-16T12:03:31.799Z,2.30
2018-12-16T12:08:24.827Z,2.00
2018-12-16T12:13:17.891Z,1.90
2018-12-16T12:18:10.805Z,1.80
2018-12-16T12:23:05.994Z,1.80
2018-12-16T12:27:59.199Z,2.00
2018-12-16T12:32:52.218Z,2.00
2018-12-16T12:37:45.658Z,1.90
2018-12-16T12:42:38.512Z,1.70
2018-12-16T12:47:31.588Z,1.50
2018-12-16T12:52:27.488Z,1.30
2018-12-16T12:57:20.490Z,1.20
2018-12-16T13:02:13.638Z,1.10
2018-12-16T13:07:06.937Z,1.10
2018-12-16T13:12:00.418Z,1.10
2018-12-16T13:16:53.394Z,1.10
2018-12-16T13:21:46.456Z,1.00
2018-12-16T13:26:39.432Z,0.90
2018-12-16T13:31:32.595Z,0.90
2018-12-16T13:36:26.656Z,1.00
2018-12-16T13:41:20.534Z,1.00
2018-12-16T13:46:15.090Z,1.00
2018-12-16T13:51:08.324Z,1.00
2018-12-16T13:56:03.117Z,1.00
2018-12-16T14:00:56.057Z,0.90
2018-12-16T14:05:49.311Z,0.90
2018-12-16T14:10:42.388Z,0.80
2018-12-16T14:15:36.334Z,0.70
2018-12-16T14:20:30.043Z,0.70
2018-12-16T14:25:23.951Z,0.70
2018-12-16T14:30:16.917Z,0.60
2018-12-16T14:35:11.268Z,0.60
2018-12-16T14:40:08.728Z,0.60
2018-12-16T14:45:02.681Z,0.60
2018-12-16T14:49:56.778Z,0.60
2018-12-16T14:54:49.742Z,0.50
2018-12-16T14:59:43.021Z,0.50
2018-12-16T15:04:43.857Z,0.50
2018-12-16T15:09:37.250Z,0.60
2018-12-16T15:14:30.523Z,0.50
2018-12-16T15:19:23.428Z,0.60
2018-12-16T15:24:16.360Z,0.60
2018-12-16T15:29:09.324Z,0.60
2018-12-16T15:34:05.222Z,0.60
2018-12-16T15:38:58.230Z,0.70
2018-12-16T15:43:51.349Z,0.70
2018-12-16T15:48:46.435Z,0.70
2018-12-16T15:53:39.670Z,0.70
2018-12-16T15:58:32.768Z,0.60
2018-12-16T16:03:25.736Z,0.60
2018-12-16T16:08:20.239Z,0.60
2018-12-16T16:13:13.408Z,0.70
2018-12-16T16:18:07.215Z,0.70
2018-12-16T16:23:00.474Z,0.70
2018-12-16T16:27:53.440Z,0.70
2018-12-16T16:32:46.548Z,0.60
2018-12-16T16:37:40.034Z,0.60
2018-12-16T16:42:57.707Z,0.70
2018-12-16T16:47:50.775Z,0.60
2018-12-16T16:52:44.607Z,0.60
2018-12-16T16:57:37.838Z,0.60
2018-12-16T17:02:32.025Z,0.70
2018-12-16T17:07:24.965Z,0.60
2018-12-16T17:12:17.902Z,0.60
2018-12-16T17:17:10.974Z,0.70
2018-12-16T17:22:04.796Z,0.60
2018-12-16T17:26:57.767Z,0.70
2018-12-16T17:31:52.482Z,0.60
2018-12-16T17:36:47.841Z,0.70
2018-12-16T17:41:47.793Z,0.60
2018-12-16T17:46:41.404Z,0.60
2018-12-16T17:51:35.061Z,0.70
2018-12-16T17:56:28.239Z,0.70
2018-12-16T18:01:21.408Z,0.70
2018-12-16T18:06:14.489Z,0.80
2018-12-16T18:11:07.651Z,0.80
2018-12-16T18:16:00.925Z,0.80
2018-12-16T18:20:54.098Z,0.80
2018-12-16T18:25:46.968Z,0.80
2018-12-16T18:30:40.042Z,0.80
2018-12-16T18:35:33.725Z,0.50
2018-12-16T18:40:27.857Z,0.40
2018-12-16T18:45:21.706Z,0.30
2018-12-16T18:50:15.796Z,0.20
2018-12-16T18:55:08.879Z,0.20
2018-12-16T19:00:01.709Z,0.20
2018-12-16T19:04:57.735Z,0.20
2018-12-16T19:09:54.033Z,0.10
2018-12-16T19:14:47.555Z,0.10
2018-12-16T19:19:41.042Z,0.10
2018-12-16T19:24:34.422Z,0.10
2018-12-16T19:29:27.527Z,0.10
2018-12-16T19:34:20.602Z,0.10
2018-12-16T19:39:13.673Z,0.10
2018-12-16T19:44:06.636Z,0.20
2018-12-16T19:48:59.773Z,0.20
2018-12-16T19:53:53.162Z,0.20
2018-12-16T19:58:47.450Z,0.20
2018-12-16T20:03:42.505Z,0.40
2018-12-16T20:08:35.574Z,0.40
2018-12-16T20:13:29.834Z,0.40
2018-12-16T20:18:23.520Z,0.40
2018-12-16T20:23:16.563Z,0.50
2018-12-16T20:28:11.319Z,0.50
2018-12-16T20:33:06.282Z,0.60
2018-12-16T20:37:59.666Z,0.60
2018-12-16T20:42:55.210Z,0.60
2018-12-16T20:47:50.154Z,0.60
2018-12-16T20:52:44.163Z,0.60
2018-12-16T20:57:37.644Z,0.70
2018-12-16T21:02:33.697Z,0.70
2018-12-16T21:07:27.786Z,0.70
2018-12-16T21:12:28.960Z,0.70
2018-12-16T21:17:27.745Z,0.80
2018-12-16T21:22:20.733Z,0.80
2018-12-16T21:27:15.852Z,0.80
2018-12-16T21:32:09.290Z,0.80
2018-12-16T21:37:04.326Z,0.80
2018-12-16T21:41:57.232Z,0.80
2018-12-16T21:46:50.567Z,0.80
2018-12-16T21:51:44.672Z,0.90
2018-12-16T21:56:37.697Z,0.90
2018-12-16T22:01:30.733Z,0.90
2018-12-16T22:06:23.772Z,0.90
2018-12-16T22:11:17.518Z,1.00
2018-12-16T22:16:11.860Z,1.00
2018-12-16T22:21:05.138Z,1.10
2018-12-16T22:26:00.249Z,1.10
2018-12-16T22:30:53.532Z,1.10
2018-12-16T22:35:48.272Z,1.20
2018-12-16T22:40:41.412Z,1.20
2018-12-16T22:45:35.198Z,1.30
2018-12-16T22:50:28.267Z,1.30
2018-12-16T22:55:22.185Z,1.30
2018-12-16T23:00:18.135Z,1.40
2018-12-16T23:05:12.373Z,1.40
2018-12-16T23:10:06.902Z,1.40
2018-12-16T23:15:01.897Z,1.40
2018-12-16T23:20:00.623Z,1.40
2018-12-16T23:24:54.274Z,1.40
2018-12-16T23:29:47.784Z,1.40
2018-12-16T23:34:41.020Z,1.40
2018-12-16T23:39:34.760Z,1.50
2018-12-16T23:44:27.610Z,1.40
2018-12-16T23:49:28.259Z,1.30
2018-12-16T23:54:22.288Z,1.40
2018-12-16T23:59:15.462Z,1.50
